KDSM/DSM METAR and TAF weather

Enter ICAO airport designator
Station Type Date Time Source
KDSM METAR 2019/10/15 07:54 UTC NOAA

KDSM 150754Z 16008KT 10SM CLR 09/06 A2980 RMK AO2 SLP091 T00890056


Station Type Date Time Source
KDSM Decoded METAR 2019/10/15 07:54 UTC NOAA

DES MOINES INTERNATIONAL, IA, United States (KDSM) 41-32N 93-40W 295M
Oct 15, 2019 - 03:54 AM EDT / 2019.10.15 0754 UTC
Wind: from the SSE (160 degrees) at 9 MPH (8 KT):0
Visibility: 10 mile(s):0
Sky conditions: clear
Temperature: 48.0 F (8.9 C)
Dew Point: 42.1 F (5.6 C)
Relative Humidity: 79%
Pressure (altimeter): 29.8 in. Hg (1009 hPa)
ob: KDSM 150754Z 16008KT 10SM CLR 09/06 A2980 RMK AO2 SLP091 T00890056
cycle: 8

Station Type Date Time Source
KDSM TAF 2019/10/15 06:22 UTC NOAA

TAF KDSM 150520Z 1506/1606 15007KT P6SM SCT250 WS020/21040KT
FM150900 18006KT P6SM FEW250 WS020/24035KT
FM151100 24006KT P6SM FEW200
FM151500 31015G23KT P6SM FEW250
FM151900 31018G30KT P6SM BKN130
FM160300 32014G22KT P6SM BKN060

Example: see airport list